Time;durP1;ratioP1;P1;durP2;ratioP2;P2;SDS_P1;SDS_P2;PMS_P1;PMS_P2;Temp;Humidity;BMP_temperature;BMP_pressure;BME280_temperature;BME280_humidity;BME280_pressure;Samples;Min_cycle;Max_cycle;Signal;HPM_P1;HPM_P2
2021/05/31 00:01:18;;;;;;;1.35;1.27;;;;;;;14.79;53.27;101128.69;6247391;22;20083;-74
2021/05/31 00:03:44;;;;;;;1.00;1.00;;;;;;;14.74;53.46;101129.50;6239844;22;20014;-74
2021/05/31 00:06:09;;;;;;;1.23;1.13;;;;;;;14.64;52.72;101118.50;6247785;22;20004;-77
2021/05/31 00:08:35;;;;;;;1.25;1.25;;;;;;;14.63;53.63;101119.59;6277757;22;20024;-81
2021/05/31 00:11:00;;;;;;;1.13;1.13;;;;;;;14.59;53.50;101124.00;6255606;22;19991;-79
2021/05/31 00:13:27;;;;;;;1.45;1.45;;;;;;;14.54;53.72;101118.47;6291871;22;20057;-79
2021/05/31 00:15:54;;;;;;;3.63;2.35;;;;;;;14.55;54.22;101120.16;6279354;22;20376;-78
2021/05/31 00:18:20;;;;;;;3.53;3.22;;;;;;;14.50;54.92;101109.97;6320642;22;20007;-79
2021/05/31 00:20:46;;;;;;;3.13;2.90;;;;;;;14.46;54.55;101117.94;6312875;22;20104;-79
2021/05/31 00:23:11;;;;;;;3.15;2.75;;;;;;;14.44;54.99;101117.41;6303753;22;20192;-78
2021/05/31 00:25:37;;;;;;;4.97;2.45;;;;;;;14.42;54.82;101114.06;6257697;22;20003;-80
2021/05/31 00:28:03;;;;;;;2.55;2.45;;;;;;;14.35;54.59;101113.53;6311974;22;20410;-78
2021/05/31 00:30:28;;;;;;;3.42;3.13;;;;;;;14.25;54.83;101116.28;6255855;22;20035;-80
2021/05/31 00:32:54;;;;;;;4.38;4.07;;;;;;;14.11;55.81;101114.06;6323405;22;20022;-79
2021/05/31 00:35:20;;;;;;;3.83;3.63;;;;;;;13.95;56.56;101109.66;6324946;22;20011;-77
2021/05/31 00:37:46;;;;;;;4.82;4.10;;;;;;;13.90;56.52;101112.38;6325726;22;20003;-79
2021/05/31 00:40:12;;;;;;;3.97;3.67;;;;;;;13.75;56.66;101111.22;6328206;22;20082;-79
2021/05/31 00:42:43;;;;;;;3.40;3.17;;;;;;;13.59;56.54;101112.28;6314765;22;20007;-73
2021/05/31 00:45:11;;;;;;;3.55;3.42;;;;;;;13.49;56.86;101112.25;6265244;22;20015;-73
2021/05/31 00:47:37;;;;;;;3.30;3.05;;;;;;;13.39;56.87;101113.88;6304929;22;20449;-74
2021/05/31 00:50:03;;;;;;;4.00;3.70;;;;;;;13.33;57.01;101103.94;6248805;22;20003;-74
2021/05/31 00:52:29;;;;;;;4.07;3.70;;;;;;;13.28;56.99;101106.63;6276523;22;20368;-74
2021/05/31 00:54:54;;;;;;;4.03;3.55;;;;;;;13.20;57.69;101104.38;6294703;22;20014;-73
2021/05/31 00:57:19;;;;;;;4.18;3.97;;;;;;;13.16;58.01;101108.78;6276084;22;20091;-73
2021/05/31 00:59:45;;;;;;;4.32;4.05;;;;;;;13.03;57.78;101104.59;6278234;22;20015;-74
2021/05/31 01:02:11;;;;;;;2.92;2.72;;;;;;;12.97;57.61;101098.25;6242007;22;20008;-73
2021/05/31 01:04:37;;;;;;;3.20;2.63;;;;;;;12.88;57.82;101091.59;6239510;22;20093;-74
2021/05/31 01:07:08;;;;;;;2.65;2.47;;;;;;;12.83;57.75;101094.31;6301922;22;20037;-74
2021/05/31 01:09:46;;;;;;;5.22;2.63;;;;;;;12.67;57.51;101088.72;6297351;22;20677;-73
2021/05/31 01:12:29;;;;;;;3.35;2.28;;;;;;;12.61;58.05;101098.00;6303479;22;20085;-74
2021/05/31 01:15:24;;;;;;;3.70;3.50;;;;;;;12.50;57.78;101096.25;6304836;22;20188;-73
2021/05/31 01:18:08;;;;;;;3.17;2.42;;;;;;;12.43;58.02;101102.00;6278788;22;20072;-74
2021/05/31 01:20:47;;;;;;;2.30;2.20;;;;;;;12.31;58.47;101088.44;6274464;22;20427;-73
2021/05/31 01:23:16;;;;;;;2.67;2.58;;;;;;;12.30;58.55;101088.72;6294617;22;19996;-73
2021/05/31 01:25:53;;;;;;;2.50;2.30;;;;;;;12.33;58.59;101085.44;6275336;22;20003;-75
2021/05/31 01:28:39;;;;;;;2.88;2.67;;;;;;;12.30;59.16;101084.03;6271171;22;20441;-74
2021/05/31 01:31:05;;;;;;;;;;;;;;;12.33;58.44;101079.97;6276836;22;20007;-73
2021/05/31 01:33:32;;;;;;;;;;;;;;;12.27;58.71;101086.50;6275741;22;19930;-78
2021/05/31 01:36:00;;;;;;;3.40;3.20;;;;;;;12.16;59.24;101074.59;6298784;22;19903;-78
2021/05/31 01:38:27;;;;;;;2.10;2.00;;;;;;;12.10;59.39;101083.88;6327885;22;20010;-79
2021/05/31 01:40:54;;;;;;;2.05;1.95;;;;;;;12.01;58.66;101073.38;6322754;22;20007;-82
2021/05/31 01:43:20;;;;;;;1.48;1.48;;;;;;;11.92;59.09;101085.06;6323606;22;20003;-81
2021/05/31 01:45:47;;;;;;;1.63;1.52;;;;;;;11.85;59.33;101077.03;6320364;22;20010;-81
2021/05/31 01:48:13;;;;;;;1.70;1.60;;;;;;;11.82;59.13;101080.28;6286331;22;20022;-81
2021/05/31 01:50:40;;;;;;;1.50;1.40;;;;;;;11.74;59.41;101076.09;6305028;22;19999;-79
2021/05/31 01:53:05;;;;;;;1.45;1.42;;;;;;;11.66;59.49;101066.41;6306573;22;20014;-78
2021/05/31 01:55:32;;;;;;;3.05;2.05;;;;;;;11.67;59.54;101067.25;6306059;22;20082;-78
2021/05/31 01:57:59;;;;;;;1.90;1.80;;;;;;;11.62;59.68;101078.16;6302991;22;20007;-79
2021/05/31 02:00:24;;;;;;;2.28;2.08;;;;;;;11.60;59.87;101070.19;6279672;22;20011;-79
2021/05/31 02:02:51;;;;;;;1.95;1.75;;;;;;;11.57;60.29;101067.16;6279571;22;20003;-79
2021/05/31 02:05:17;;;;;;;1.85;1.75;;;;;;;11.47;59.79;101057.72;6307294;22;20026;-77
2021/05/31 02:07:43;;;;;;;2.40;2.30;;;;;;;11.48;59.85;101058.56;6279922;22;20007;-79
2021/05/31 02:10:10;;;;;;;2.13;2.03;;;;;;;11.44;60.57;101060.16;6306380;22;20014;-77
2021/05/31 02:12:44;;;;;;;2.55;2.20;;;;;;;11.33;60.52;101051.81;6307916;22;20003;-77
2021/05/31 02:15:13;;;;;;;2.50;2.30;;;;;;;11.38;60.92;101053.78;6305655;22;20430;-78
2021/05/31 02:17:49;;;;;;;2.00;1.90;;;;;;;11.34;60.44;101058.94;6278630;22;20018;-78
2021/05/31 02:20:18;;;;;;;2.40;2.30;;;;;;;11.26;60.72;101051.19;6304651;22;20070;-78
2021/05/31 02:22:47;;;;;;;2.30;2.20;;;;;;;11.23;61.18;101042.63;6304298;22;20003;-78
2021/05/31 02:25:14;;;;;;;2.55;2.45;;;;;;;11.24;61.25;101052.50;6306908;22;19995;-78
2021/05/31 02:27:41;;;;;;;2.03;1.92;;;;;;;11.18;60.47;101040.66;6308168;22;20031;-78
2021/05/31 02:30:07;;;;;;;3.78;1.98;;;;;;;11.20;60.98;101045.88;6268794;22;20048;-77
2021/05/31 02:32:32;;;;;;;1.88;1.77;;;;;;;11.16;60.88;101045.59;6302893;22;20368;-78
2021/05/31 02:34:58;;;;;;;2.08;1.90;;;;;;;11.13;60.94;101035.97;6304843;22;20003;-79
2021/05/31 02:37:35;;;;;;;2.20;2.10;;;;;;;11.08;61.22;101033.19;6302855;22;20426;-79
2021/05/31 02:40:04;;;;;;;2.67;2.45;;;;;;;11.05;61.40;101032.84;6305992;22;20052;-79
2021/05/31 02:42:29;;;;;;;4.03;2.90;;;;;;;11.05;61.81;101032.84;6278565;22;20440;-79
2021/05/31 02:44:54;;;;;;;2.72;2.63;;;;;;;11.03;61.57;101035.03;6275405;22;20007;-78
2021/05/31 02:47:20;;;;;;;3.03;2.72;;;;;;;10.98;61.88;101024.81;6253577;22;20365;-78
2021/05/31 02:49:46;;;;;;;2.70;2.58;;;;;;;10.95;61.33;101023.44;6305759;22;19999;-79
2021/05/31 02:52:11;;;;;;;2.33;2.22;;;;;;;10.94;61.44;101032.72;6279311;22;20138;-79
2021/05/31 02:54:36;;;;;;;2.25;2.15;;;;;;;10.89;62.08;101029.91;6304795;22;20010;-78
2021/05/31 02:57:02;;;;;;;2.17;2.08;;;;;;;10.87;61.72;101032.06;6277969;22;20014;-77
2021/05/31 02:59:28;;;;;;;3.47;3.28;;;;;;;10.86;62.06;101041.34;6279674;22;20449;-78
2021/05/31 03:01:53;;;;;;;3.03;2.92;;;;;;;10.85;61.92;101039.72;6278425;22;20014;-81
2021/05/31 03:04:19;;;;;;;2.53;2.42;;;;;;;10.80;61.38;101036.91;6308723;22;20010;-81
2021/05/31 03:06:44;;;;;;;4.20;4.00;;;;;;;10.74;62.34;101026.97;6276797;22;20305;-79
2021/05/31 03:09:09;;;;;;;3.08;2.95;;;;;;;10.67;62.17;101020.84;6280350;22;20003;-79
2021/05/31 03:11:35;;;;;;;4.47;4.18;;;;;;;10.65;62.99;101024.66;6276735;22;20003;-78
2021/05/31 03:14:00;;;;;;;6.07;5.57;;;;;;;10.57;62.47;101005.97;6306892;22;20371;-80
2021/05/31 03:16:26;;;;;;;4.75;4.45;;;;;;;10.56;62.48;101009.78;6305942;22;20007;-80
2021/05/31 03:18:51;;;;;;;4.78;4.47;;;;;;;10.57;62.57;101010.59;6300737;22;20014;-79
2021/05/31 03:21:16;;;;;;;4.50;4.30;;;;;;;10.58;62.61;101017.72;6305665;22;20418;-80
2021/05/31 03:23:42;;;;;;;4.35;4.15;;;;;;;10.54;62.80;101011.94;6279194;22;20014;-79
2021/05/31 03:26:08;;;;;;;3.63;3.42;;;;;;;10.52;62.76;101007.78;6278876;22;20004;-80
2021/05/31 03:28:33;;;;;;;6.47;3.80;;;;;;;10.51;63.15;101006.94;6303096;22;20000;-81
2021/05/31 03:30:59;;;;;;;4.20;3.83;;;;;;;10.48;63.41;101007.44;6280702;22;20412;-80
2021/05/31 03:33:25;;;;;;;4.40;4.07;;;;;;;10.50;63.66;101016.25;6275265;22;20011;-80
2021/05/31 03:35:50;;;;;;;3.53;3.22;;;;;;;10.46;63.29;101009.63;6306686;22;20660;-80
2021/05/31 03:38:16;;;;;;;4.25;3.95;;;;;;;10.42;63.29;101005.72;6278380;22;20003;-78
2021/05/31 03:40:41;;;;;;;4.05;3.75;;;;;;;10.42;63.53;101014.75;6251017;22;20010;-79
2021/05/31 03:43:07;;;;;;;3.92;3.72;;;;;;;10.37;63.10;101011.13;6297939;22;20031;-78
2021/05/31 03:45:32;;;;;;;4.00;3.75;;;;;;;10.36;63.92;101014.94;6278662;22;20085;-77
2021/05/31 03:47:57;;;;;;;2.83;2.70;;;;;;;10.30;63.15;101009.34;6300061;22;20548;-79
2021/05/31 03:50:23;;;;;;;3.10;2.90;;;;;;;10.30;62.99;101017.53;6304707;22;20014;-78
2021/05/31 03:52:49;;;;;;;4.18;3.63;;;;;;;10.27;63.64;101011.75;6304603;22;20446;-77
2021/05/31 03:55:15;;;;;;;5.18;3.20;;;;;;;10.25;63.11;101013.91;6299367;22;20014;-79
2021/05/31 03:57:41;;;;;;;3.50;3.30;;;;;;;10.23;63.51;101005.97;6304668;22;20007;-78
2021/05/31 04:00:09;;;;;;;3.05;2.95;;;;;;;10.22;63.85;101008.94;6276348;22;20011;-78
2021/05/31 04:02:39;;;;;;;3.63;2.92;;;;;;;10.19;63.75;101004.81;6308686;22;20003;-78
2021/05/31 04:05:07;;;;;;;4.60;2.35;;;;;;;10.15;63.60;101006.38;6281307;22;20030;-77
2021/05/31 04:13:02;;;;;;;3.83;3.53;;;;;;;10.12;64.74;101010.44;6311141;22;20696;-78
2021/05/31 04:15:28;;;;;;;3.95;3.75;;;;;;;10.05;64.22;100992.56;6285285;22;20011;-81
2021/05/31 04:17:56;;;;;;;7.55;7.00;;;;;;;10.06;64.34;100999.66;6259962;22;20011;-81
2021/05/31 04:20:22;;;;;;;6.93;6.38;;;;;;;10.14;64.47;101002.00;6282637;22;20014;-81
2021/05/31 04:22:51;;;;;;;7.22;6.63;;;;;;;10.08;64.57;100986.59;6259529;22;20426;-80
2021/05/31 04:25:24;;;;;;;7.70;7.10;;;;;;;10.14;64.69;100991.06;6281849;22;19999;-80
2021/05/31 04:27:50;;;;;;;8.65;7.90;;;;;;;10.16;65.43;100977.97;6308962;22;19999;-80
2021/05/31 04:30:16;;;;;;;21.00;9.75;;;;;;;10.29;64.94;100987.72;6311912;22;20013;-79
2021/05/31 04:32:42;;;;;;;10.02;8.90;;;;;;;10.41;64.88;100990.41;6280339;22;20007;-79
2021/05/31 04:35:10;;;;;;;14.30;8.20;;;;;;;10.49;65.18;100992.72;6259356;22;20441;-79
2021/05/31 04:37:35;;;;;;;9.25;7.95;;;;;;;10.63;66.01;100988.53;6284727;22;20006;-79
2021/05/31 04:40:02;;;;;;;10.80;7.85;;;;;;;10.89;65.38;100990.78;6229903;22;20007;-80
2021/05/31 04:42:28;;;;;;;12.98;8.48;;;;;;;11.02;64.81;100990.38;6254488;22;20011;-81
2021/05/31 04:44:53;;;;;;;6.32;5.72;;;;;;;11.16;64.93;100990.84;6284210;22;20009;-80
2021/05/31 04:47:19;;;;;;;6.40;5.90;;;;;;;11.28;64.31;100982.47;6283400;22;20013;-78
2021/05/31 04:49:44;;;;;;;6.13;5.70;;;;;;;11.40;64.42;100987.81;6277097;22;20038;-72
2021/05/31 04:52:10;;;;;;;6.70;6.20;;;;;;;11.54;64.53;101002.75;6272219;22;20010;-71
2021/05/31 04:54:36;;;;;;;5.57;5.25;;;;;;;11.58;64.33;101003.88;6274897;22;20014;-72
2021/05/31 04:57:02;;;;;;;5.95;5.55;;;;;;;11.60;63.97;100990.75;6297399;22;20003;-71
2021/05/31 04:59:27;;;;;;;6.40;5.80;;;;;;;11.66;64.12;100995.19;6305946;22;20009;-71
2021/05/31 05:01:53;;;;;;;5.28;4.97;;;;;;;11.71;63.96;100997.16;6273514;22;20392;-72
2021/05/31 05:04:18;;;;;;;5.90;5.40;;;;;;;11.80;63.90;101005.75;6276358;22;20010;-72
2021/05/31 05:06:44;;;;;;;5.35;4.88;;;;;;;11.87;64.10;100992.63;6300893;22;20003;-73
2021/05/31 05:09:09;;;;;;;5.38;4.97;;;;;;;11.95;63.90;100983.16;6302933;22;20299;-72
2021/05/31 05:11:34;;;;;;;7.03;6.28;;;;;;;12.03;63.94;100983.50;6271651;22;20007;-72
2021/05/31 05:14:01;;;;;;;7.95;7.30;;;;;;;12.16;63.76;100986.88;6246503;22;20019;-71
2021/05/31 05:16:27;;;;;;;8.85;7.95;;;;;;;12.22;63.75;100986.66;6302869;22;20015;-72
2021/05/31 05:18:53;;;;;;;5.07;4.80;;;;;;;12.29;63.38;100991.88;6272638;22;20010;-71
2021/05/31 05:21:19;;;;;;;8.02;6.32;;;;;;;12.35;64.17;100990.00;6298642;22;20012;-72
2021/05/31 05:23:48;;;;;;;7.43;5.13;;;;;;;12.43;63.42;100994.19;6275792;22;20034;-72
2021/05/31 05:26:15;;;;;;;5.25;4.95;;;;;;;12.48;63.56;100989.53;6273293;22;20003;-72
2021/05/31 05:28:42;;;;;;;4.80;4.50;;;;;;;12.57;63.38;100987.13;6275471;22;20444;-74
2021/05/31 05:31:09;;;;;;;5.22;4.82;;;;;;;12.64;63.45;100982.22;6302177;22;20007;-74
2021/05/31 05:33:42;;;;;;;6.32;5.82;;;;;;;12.77;62.84;100991.09;6281069;22;20018;-73
2021/05/31 05:39:29;;;;;;;13.32;9.30;;;;;;;12.92;63.44;100983.75;6283381;22;20038;-73
2021/05/31 05:42:15;;;;;;;8.25;7.47;;;;;;;13.03;63.12;100984.59;6282553;22;20011;-73
2021/05/31 05:49:50;;;;;;;6.40;5.88;;;;;;;13.28;62.87;100985.78;6316489;22;20015;-72
2021/05/31 05:52:16;;;;;;;9.77;8.85;;;;;;;13.37;62.54;100989.69;6271472;22;20027;-73
2021/05/31 05:54:42;;;;;;;14.60;9.25;;;;;;;13.37;62.54;100973.19;6252527;22;20014;-73
2021/05/31 05:57:08;;;;;;;6.90;6.30;;;;;;;13.49;62.45;100992.22;6297504;22;20077;-74
2021/05/31 05:59:34;;;;;;;11.38;8.93;;;;;;;13.56;62.55;100975.44;6278158;22;20563;-73
2021/05/31 06:02:00;;;;;;;14.65;9.95;;;;;;;13.65;62.20;100978.47;6274102;22;20003;-74
2021/05/31 06:04:25;;;;;;;8.00;6.53;;;;;;;13.69;62.16;100985.88;6246800;22;20014;-74
2021/05/31 06:06:51;;;;;;;13.38;9.52;;;;;;;13.83;61.73;100990.84;6251459;22;19999;-73
2021/05/31 06:09:17;;;;;;;16.50;10.73;;;;;;;13.93;61.73;100993.59;6270050;22;20334;-73
2021/05/31 06:11:45;;;;;;;13.85;10.70;;;;;;;13.96;61.84;100993.88;6276967;22;20333;-73
2021/05/31 06:14:12;;;;;;;10.93;9.50;;;;;;;14.01;61.18;101001.31;6301529;22;20323;-72
2021/05/31 06:16:37;;;;;;;8.23;7.43;;;;;;;14.10;61.24;100990.59;6253982;22;20073;-72
2021/05/31 06:19:03;;;;;;;8.70;7.85;;;;;;;14.15;61.50;100987.84;6302660;22;20306;-72
2021/05/31 06:21:29;;;;;;;6.85;6.32;;;;;;;14.21;60.75;100989.47;6250518;22;20311;-72
2021/05/31 06:23:54;;;;;;;8.25;7.45;;;;;;;14.29;60.63;100993.59;6278311;22;20007;-72
2021/05/31 06:26:21;;;;;;;9.48;8.38;;;;;;;14.30;60.57;100989.75;6273275;22;20034;-73
2021/05/31 06:28:47;;;;;;;9.75;7.30;;;;;;;14.41;60.82;100991.38;6276209;22;20380;-73
2021/05/31 06:31:13;;;;;;;11.68;9.07;;;;;;;14.51;60.31;100992.47;6305019;22;20084;-73
2021/05/31 06:33:39;;;;;;;8.07;7.35;;;;;;;14.55;60.45;100986.09;6294384;22;20038;-71
2021/05/31 06:36:08;;;;;;;7.57;6.88;;;;;;;14.63;60.44;100993.84;6303814;22;20034;-72
2021/05/31 06:38:33;;;;;;;10.18;7.57;;;;;;;14.70;59.69;100996.28;6302615;22;20003;-73
2021/05/31 06:40:59;;;;;;;9.40;8.43;;;;;;;14.79;60.39;100996.53;6272796;22;20011;-72
2021/05/31 06:43:25;;;;;;;8.20;7.38;;;;;;;14.82;59.50;100985.78;6278804;22;20007;-73
2021/05/31 06:45:50;;;;;;;17.75;9.38;;;;;;;14.92;59.39;101000.63;6248300;22;20034;-72
2021/05/31 06:48:15;;;;;;;9.65;8.32;;;;;;;14.91;59.71;100987.94;6273623;22;20037;-72
2021/05/31 06:50:43;;;;;;;6.93;6.38;;;;;;;15.05;59.69;101001.94;6300608;22;20439;-72
2021/05/31 06:53:09;;;;;;;10.68;9.13;;;;;;;15.05;58.87;100991.75;6271667;22;20084;-73
2021/05/31 06:55:35;;;;;;;19.33;11.82;;;;;;;15.14;58.65;100997.50;6249528;22;20007;-71
2021/05/31 06:58:01;;;;;;;10.13;9.23;;;;;;;15.16;59.18;100998.84;6270648;22;20007;-72
2021/05/31 07:00:28;;;;;;;11.85;8.20;;;;;;;15.21;59.21;100986.19;6267644;22;20048;-72
2021/05/31 07:02:54;;;;;;;11.73;9.68;;;;;;;15.33;59.02;100989.41;6252240;22;20091;-72
2021/05/31 07:05:20;;;;;;;12.20;7.88;;;;;;;15.41;58.86;100990.75;6274499;22;20418;-71
2021/05/31 07:07:46;;;;;;;9.50;8.10;;;;;;;15.50;58.90;100992.59;6304448;22;20007;-73
2021/05/31 07:10:14;;;;;;;18.25;11.57;;;;;;;15.63;59.01;100998.59;6247034;22;20022;-72
2021/05/31 07:12:41;;;;;;;15.52;10.95;;;;;;;15.65;58.02;100993.63;6277939;22;20367;-75
2021/05/31 07:15:07;;;;;;;11.25;9.65;;;;;;;15.69;58.42;100998.25;6246774;22;20019;-72
2021/05/31 07:17:34;;;;;;;10.38;8.75;;;;;;;15.83;58.52;100995.72;6277764;22;20059;-73
2021/05/31 07:20:01;;;;;;;12.75;9.32;;;;;;;15.98;58.15;100993.97;6275545;22;20003;-72
2021/05/31 07:22:28;;;;;;;8.23;7.40;;;;;;;16.02;58.09;100982.06;6304116;22;20912;-72
2021/05/31 07:24:54;;;;;;;9.13;8.13;;;;;;;16.14;57.77;100987.19;6295573;22;20132;-72
2021/05/31 07:27:20;;;;;;;11.50;8.75;;;;;;;16.30;57.19;100987.88;6273763;22;20038;-73
2021/05/31 07:29:46;;;;;;;8.82;7.90;;;;;;;16.43;57.33;100997.41;6303603;22;20006;-74
2021/05/31 07:32:12;;;;;;;12.57;8.43;;;;;;;16.52;57.22;100992.88;6302212;22;20011;-73
2021/05/31 07:34:38;;;;;;;6.78;6.18;;;;;;;16.70;57.24;100998.78;6268837;22;20007;-72
2021/05/31 07:37:04;;;;;;;8.52;7.05;;;;;;;16.93;57.08;100997.97;6271137;22;20011;-72
2021/05/31 07:40:25;;;;;;;;;;;;;;;;;;;;;
2021/05/31 07:47:15;;;;;;;8.18;7.38;;;;;;;18.14;55.04;101002.34;6301945;22;20611;-73
2021/05/31 07:54:12;;;;;;;;;;;;;;;;;;;;;
2021/05/31 07:57:00;;;;;;;7.25;6.85;;;;;;;19.08;53.44;100989.19;6235228;23;20083;-74
2021/05/31 08:00:07;;;;;;;7.85;7.20;;;;;;;19.33;52.70;100990.63;6235750;23;20008;-72
2021/05/31 08:03:24;;;;;;;8.90;8.10;;;;;;;19.46;51.67;100957.59;6172253;23;20023;-73
2021/05/31 08:06:00;;;;;;;6.68;6.13;;;;;;;19.68;50.79;100988.16;6123943;23;20107;-72
2021/05/31 08:11:29;;;;;;;8.05;7.35;;;;;;;19.95;49.90;100986.41;6133375;23;20013;-72
2021/05/31 08:13:57;;;;;;;;;;;;;;;20.13;48.99;100997.63;6118016;23;20160;-71
2021/05/31 08:16:23;;;;;;;11.10;7.28;;;;;;;19.89;50.20;100984.91;6271580;22;19907;-73
2021/05/31 08:18:56;;;;;;;10.85;7.78;;;;;;;19.95;49.81;100982.81;6303070;22;20382;-72
2021/05/31 08:21:26;;;;;;;9.15;6.72;;;;;;;19.93;49.79;100972.03;6276916;22;20074;-74
2021/05/31 08:23:51;;;;;;;5.65;5.35;;;;;;;19.99;49.90;100990.19;6275436;22;20078;-74
2021/05/31 08:26:19;;;;;;;9.55;8.68;;;;;;;19.91;49.61;100962.38;6311716;22;20018;-73
2021/05/31 08:28:52;;;;;;;11.45;8.23;;;;;;;19.95;49.79;100969.75;6271417;22;20014;-74
2021/05/31 08:31:20;;;;;;;6.25;5.75;;;;;;;19.94;50.11;100965.34;6318834;22;20014;-72
2021/05/31 08:33:49;;;;;;;8.18;7.38;;;;;;;20.02;49.56;100963.78;6275320;22;20007;-72
2021/05/31 08:36:15;;;;;;;6.82;6.32;;;;;;;20.05;49.21;100972.28;6271545;22;20002;-72
2021/05/31 08:38:41;;;;;;;7.88;7.38;;;;;;;19.91;49.19;100954.88;6323043;22;19999;-71
2021/05/31 08:41:08;;;;;;;7.93;7.22;;;;;;;19.82;49.09;100959.56;6303119;22;19999;-72
2021/05/31 08:43:39;;;;;;;7.05;6.55;;;;;;;19.76;49.66;100960.78;6310139;22;20027;-71
2021/05/31 08:46:04;;;;;;;10.93;7.93;;;;;;;19.71;50.00;100962.53;6274366;22;20034;-71
2021/05/31 08:48:31;;;;;;;5.57;5.00;;;;;;;19.63;50.11;100941.09;6307284;22;20326;-72
2021/05/31 08:50:56;;;;;;;8.18;7.40;;;;;;;19.73;49.96;100953.06;6304861;22;20007;-71
2021/05/31 08:53:26;;;;;;;6.18;5.82;;;;;;;19.73;50.53;100936.41;6275200;22;20003;-73
2021/05/31 08:55:52;;;;;;;6.05;5.65;;;;;;;19.82;50.00;100940.13;6280197;22;20003;-71
2021/05/31 08:58:19;;;;;;;7.60;6.93;;;;;;;19.83;50.29;100938.97;6305930;22;20027;-71
2021/05/31 09:00:58;;;;;;;8.57;7.53;;;;;;;19.90;50.09;100933.78;6307537;22;20007;-72
2021/05/31 09:03:24;;;;;;;7.05;6.70;;;;;;;20.05;49.71;100950.06;6300125;22;20321;-72
2021/05/31 09:05:49;;;;;;;9.93;8.70;;;;;;;20.08;50.04;100939.44;6306271;22;19991;-72
2021/05/31 09:08:21;;;;;;;7.88;7.28;;;;;;;20.14;49.68;100932.66;6269498;22;20082;-72
2021/05/31 09:11:15;;;;;;;7.28;6.68;;;;;;;20.28;49.18;100950.03;6305119;22;20409;-72
2021/05/31 09:13:43;;;;;;;4.90;4.60;;;;;;;20.21;49.35;100933.81;6303934;22;20006;-72
2021/05/31 09:16:20;;;;;;;7.20;6.57;;;;;;;20.30;49.62;100942.19;6303600;22;20100;-73
2021/05/31 09:18:51;;;;;;;7.30;6.90;;;;;;;20.35;49.14;100942.03;6297114;22;19995;-72
2021/05/31 09:21:45;;;;;;;8.60;7.75;;;;;;;20.39;49.84;100934.72;6277850;22;20436;-71
2021/05/31 09:24:22;;;;;;;6.95;6.50;;;;;;;20.37;49.36;100925.88;6308184;22;20481;-73
2021/05/31 09:26:51;;;;;;;8.05;7.07;;;;;;;20.51;49.36;100942.44;6251092;22;20481;-72
2021/05/31 09:29:18;;;;;;;8.85;7.60;;;;;;;20.60;49.31;100939.69;6275165;22;19999;-73
2021/05/31 09:31:44;;;;;;;7.55;6.85;;;;;;;20.65;48.84;100930.41;6298637;22;20456;-72
2021/05/31 09:34:13;;;;;;;7.95;6.78;;;;;;;20.82;48.73;100940.78;6304184;22;20417;-71
2021/05/31 09:36:54;;;;;;;8.40;7.63;;;;;;;20.86;48.61;100922.31;6248816;22;20015;-73
2021/05/31 09:39:35;;;;;;;7.85;7.13;;;;;;;20.96;48.25;100930.34;6302664;22;20329;-72
2021/05/31 09:42:14;;;;;;;7.10;6.60;;;;;;;21.08;47.65;100932.47;6272928;22;20334;-72
2021/05/31 09:44:52;;;;;;;8.27;7.57;;;;;;;21.11;47.60;100931.81;6302733;22;20052;-72
2021/05/31 09:47:31;;;;;;;7.78;7.03;;;;;;;21.17;47.42;100918.59;6303026;22;20009;-72
2021/05/31 09:50:10;;;;;;;10.02;8.90;;;;;;;21.33;47.63;100916.13;6275666;22;20067;-71
2021/05/31 09:52:41;;;;;;;5.78;5.45;;;;;;;21.55;47.41;100921.59;6272724;22;20039;-72
2021/05/31 09:55:47;;;;;;;7.05;6.55;;;;;;;21.90;47.55;100929.03;6273429;22;20418;-73
2021/05/31 09:58:17;;;;;;;6.22;5.80;;;;;;;22.11;46.86;100923.59;6277674;22;20084;-72
2021/05/31 10:00:53;;;;;;;6.13;5.63;;;;;;;22.48;46.37;100935.91;6302326;22;20003;-71
2021/05/31 10:03:28;;;;;;;;;;;;;;;23.16;44.89;100940.66;6277220;22;20469;-72
2021/05/31 10:08:40;;;;;;;7.35;6.72;;;;;;;24.35;44.04;100932.97;6299558;22;20060;-74
2021/05/31 10:11:06;;;;;;;6.28;5.78;;;;;;;25.15;42.94;100928.75;6278734;22;20007;-72
2021/05/31 10:13:32;;;;;;;5.57;4.55;;;;;;;26.21;42.54;100939.78;6278518;22;20353;-73
2021/05/31 10:16:01;;;;;;;4.10;3.90;;;;;;;27.14;41.76;100920.75;6304820;22;20017;-71
2021/05/31 10:18:29;;;;;;;3.88;3.67;;;;;;;28.30;40.53;100937.91;6305053;22;20322;-72
2021/05/31 10:20:55;;;;;;;4.50;4.10;;;;;;;29.22;38.50;100931.34;6279653;22;19999;-70
2021/05/31 10:23:21;;;;;;;2.60;2.50;;;;;;;30.31;38.41;100941.81;6279768;22;20031;-73
2021/05/31 10:26:00;;;;;;;4.15;3.85;;;;;;;31.29;36.03;100930.00;6282761;22;20466;-71
2021/05/31 10:28:41;;;;;;;5.13;3.97;;;;;;;32.39;34.80;100935.56;6303693;22;20307;-72
2021/05/31 10:31:15;;;;;;;4.78;4.35;;;;;;;33.33;33.56;100930.59;6300477;22;20003;-71
2021/05/31 10:33:55;;;;;;;4.95;4.65;;;;;;;34.15;30.89;100923.63;6270807;22;20603;-73
2021/05/31 10:36:23;;;;;;;5.60;3.30;;;;;;;34.80;29.64;100928.81;6306145;22;19995;-73
2021/05/31 10:38:51;;;;;;;3.50;3.30;;;;;;;35.38;28.90;100917.59;6304253;22;20007;-72
2021/05/31 10:41:23;;;;;;;3.45;3.28;;;;;;;35.99;27.61;100922.41;6305342;22;20002;-73
2021/05/31 10:43:51;;;;;;;3.15;3.05;;;;;;;36.41;26.44;100925.03;6305066;22;20042;-72
2021/05/31 10:46:19;;;;;;;2.50;2.40;;;;;;;36.98;25.09;100923.16;6276396;22;20015;-71
2021/05/31 10:48:50;;;;;;;3.10;2.92;;;;;;;37.53;24.58;100934.31;6274076;22;20060;-74
2021/05/31 10:51:22;;;;;;;2.15;2.05;;;;;;;38.07;24.60;100928.16;6295451;22;20032;-73
2021/05/31 10:53:52;;;;;;;2.28;2.17;;;;;;;38.70;23.63;100923.34;6273422;22;20010;-71
2021/05/31 10:56:18;;;;;;;2.75;2.55;;;;;;;39.24;22.47;100929.63;6306172;22;20078;-72
2021/05/31 10:58:48;;;;;;;1.33;1.23;;;;;;;39.77;22.75;100930.03;6263584;22;20369;-73
2021/05/31 11:01:20;;;;;;;1.48;1.40;;;;;;;40.39;22.20;100934.59;6278385;22;20437;-72
2021/05/31 11:03:45;;;;;;;2.58;2.33;;;;;;;41.02;21.42;100934.88;6269234;22;19995;-73
2021/05/31 11:06:23;;;;;;;1.48;1.30;;;;;;;41.64;20.86;100921.88;6277500;22;20007;-72
2021/05/31 11:08:50;;;;;;;1.98;1.88;;;;;;;42.07;19.37;100925.84;6275214;22;20003;-73
2021/05/31 11:11:28;;;;;;;1.70;1.63;;;;;;;42.51;19.37;100922.78;6304497;22;20364;-74
2021/05/31 11:13:55;;;;;;;2.05;1.95;;;;;;;42.82;18.57;100916.09;6305922;22;20011;-72
2021/05/31 11:16:21;;;;;;;1.00;1.00;;;;;;;43.33;18.77;100908.84;6276014;22;19999;-72
2021/05/31 11:18:55;;;;;;;1.08;1.08;;;;;;;43.98;18.02;100908.59;6277336;22;20354;-72
2021/05/31 11:21:45;;;;;;;2.08;1.92;;;;;;;44.65;17.11;100905.63;6301765;22;20372;-72
2021/05/31 11:24:18;;;;;;;2.55;1.25;;;;;;;45.02;17.10;100913.91;6271420;22;19996;-73
2021/05/31 11:26:47;;;;;;;1.95;1.85;;;;;;;45.22;15.55;100906.69;6275678;22;20676;-72
2021/05/31 11:29:15;;;;;;;1.00;1.00;;;;;;;45.55;15.74;100911.44;6276808;22;20404;-73
2021/05/31 11:31:47;;;;;;;0.90;0.90;;;;;;;46.00;15.94;100901.41;6270431;22;20029;-72
2021/05/31 11:34:13;;;;;;;2.40;1.40;;;;;;;46.38;14.79;100900.84;6274586;22;20330;-73
2021/05/31 11:36:43;;;;;;;0.80;0.80;;;;;;;46.80;14.92;100897.38;6302815;22;19995;-72
2021/05/31 11:39:12;;;;;;;0.60;0.60;;;;;;;47.14;14.53;100891.97;6276303;22;20919;-72
2021/05/31 11:41:41;;;;;;;0.80;0.80;;;;;;;47.66;14.48;100884.47;6301676;22;20052;-72
2021/05/31 11:44:28;;;;;;;0.88;0.80;;;;;;;47.86;13.58;100886.47;6276421;22;20007;-73
2021/05/31 11:46:59;;;;;;;6.18;1.15;;;;;;;48.27;13.81;100880.38;6271425;22;20013;-73
2021/05/31 11:49:30;;;;;;;0.90;0.90;;;;;;;48.60;13.29;100884.69;6302918;22;20505;-72
2021/05/31 11:52:00;;;;;;;1.52;1.20;;;;;;;48.75;12.96;100867.84;6295899;22;20443;-73
2021/05/31 11:54:36;;;;;;;1.10;1.10;;;;;;;48.71;12.32;100873.13;6303289;22;20003;-73
2021/05/31 11:57:05;;;;;;;1.83;1.73;;;;;;;48.82;12.15;100854.13;6299570;22;20003;-74
2021/05/31 11:59:36;;;;;;;0.60;0.60;;;;;;;49.12;12.73;100854.44;6278388;22;20400;-72
2021/05/31 12:02:08;;;;;;;0.60;0.60;;;;;;;49.44;12.40;100857.09;6246532;22;20098;-73
2021/05/31 12:04:33;;;;;;;1.60;1.50;;;;;;;49.66;11.48;100853.34;6272449;22;20007;-71